sensor_id;sensor_type;location;lat;lon;timestamp;P1;durP1;ratioP1;P2;durP2;ratioP2
14688;SDS011;7432;48.728;9.154;2023-11-21T00:01:24;6.70;;;5.40;;
14688;SDS011;7432;48.728;9.154;2023-11-21T00:03:50;6.47;;;5.50;;
14688;SDS011;7432;48.728;9.154;2023-11-21T00:06:21;7.47;;;5.80;;
14688;SDS011;7432;48.728;9.154;2023-11-21T00:08:47;6.40;;;5.50;;
14688;SDS011;7432;48.728;9.154;2023-11-21T00:11:13;6.27;;;5.10;;
14688;SDS011;7432;48.728;9.154;2023-11-21T00:13:40;7.60;;;5.50;;
14688;SDS011;7432;48.728;9.154;2023-11-21T00:16:06;9.17;;;5.60;;
14688;SDS011;7432;48.728;9.154;2023-11-21T00:18:33;6.27;;;5.53;;
14688;SDS011;7432;48.728;9.154;2023-11-21T00:20:59;8.07;;;6.03;;
14688;SDS011;7432;48.728;9.154;2023-11-21T00:23:27;7.87;;;5.87;;
14688;SDS011;7432;48.728;9.154;2023-11-21T00:25:53;7.00;;;5.83;;
14688;SDS011;7432;48.728;9.154;2023-11-21T00:28:20;7.33;;;5.17;;
14688;SDS011;7432;48.728;9.154;2023-11-21T00:30:47;8.27;;;5.57;;
14688;SDS011;7432;48.728;9.154;2023-11-21T00:33:13;8.00;;;5.50;;
14688;SDS011;7432;48.728;9.154;2023-11-21T00:35:40;8.00;;;6.03;;
14688;SDS011;7432;48.728;9.154;2023-11-21T00:38:06;6.67;;;5.07;;
14688;SDS011;7432;48.728;9.154;2023-11-21T00:40:35;9.00;;;5.13;;
14688;SDS011;7432;48.728;9.154;2023-11-21T00:43:01;6.10;;;4.93;;
14688;SDS011;7432;48.728;9.154;2023-11-21T00:45:27;7.70;;;5.87;;
14688;SDS011;7432;48.728;9.154;2023-11-21T00:47:54;11.83;;;5.83;;
14688;SDS011;7432;48.728;9.154;2023-11-21T00:50:22;8.33;;;5.17;;
14688;SDS011;7432;48.728;9.154;2023-11-21T00:52:49;8.30;;;5.47;;
14688;SDS011;7432;48.728;9.154;2023-11-21T00:55:16;6.10;;;5.50;;
14688;SDS011;7432;48.728;9.154;2023-11-21T00:57:44;7.63;;;5.70;;
14688;SDS011;7432;48.728;9.154;2023-11-21T01:00:11;5.83;;;5.20;;
14688;SDS011;7432;48.728;9.154;2023-11-21T01:02:39;6.80;;;5.20;;
14688;SDS011;7432;48.728;9.154;2023-11-21T01:05:06;8.30;;;5.80;;
14688;SDS011;7432;48.728;9.154;2023-11-21T01:07:33;6.40;;;5.80;;
14688;SDS011;7432;48.728;9.154;2023-11-21T01:09:59;8.53;;;5.27;;
14688;SDS011;7432;48.728;9.154;2023-11-21T01:12:25;9.23;;;5.17;;
14688;SDS011;7432;48.728;9.154;2023-11-21T01:14:53;5.70;;;4.93;;
14688;SDS011;7432;48.728;9.154;2023-11-21T01:17:19;7.00;;;5.37;;
14688;SDS011;7432;48.728;9.154;2023-11-21T01:19:47;5.53;;;4.97;;
14688;SDS011;7432;48.728;9.154;2023-11-21T01:22:14;5.30;;;4.77;;
14688;SDS011;7432;48.728;9.154;2023-11-21T01:24:41;6.57;;;5.00;;
14688;SDS011;7432;48.728;9.154;2023-11-21T01:27:07;5.40;;;5.00;;
14688;SDS011;7432;48.728;9.154;2023-11-21T01:29:34;5.57;;;5.07;;
14688;SDS011;7432;48.728;9.154;2023-11-21T01:32:02;7.67;;;4.87;;
14688;SDS011;7432;48.728;9.154;2023-11-21T01:34:29;5.87;;;4.97;;
14688;SDS011;7432;48.728;9.154;2023-11-21T01:36:55;6.27;;;4.37;;
14688;SDS011;7432;48.728;9.154;2023-11-21T01:39:22;5.50;;;5.00;;
14688;SDS011;7432;48.728;9.154;2023-11-21T01:41:49;6.73;;;5.17;;
14688;SDS011;7432;48.728;9.154;2023-11-21T01:44:16;5.47;;;5.03;;
14688;SDS011;7432;48.728;9.154;2023-11-21T01:46:44;5.97;;;4.87;;
14688;SDS011;7432;48.728;9.154;2023-11-21T01:49:12;5.13;;;4.60;;
14688;SDS011;7432;48.728;9.154;2023-11-21T01:51:40;5.60;;;4.80;;
14688;SDS011;7432;48.728;9.154;2023-11-21T01:54:07;5.87;;;4.63;;
14688;SDS011;7432;48.728;9.154;2023-11-21T01:56:33;5.47;;;4.83;;
14688;SDS011;7432;48.728;9.154;2023-11-21T01:59:00;5.50;;;4.70;;
14688;SDS011;7432;48.728;9.154;2023-11-21T02:01:27;4.80;;;4.40;;
14688;SDS011;7432;48.728;9.154;2023-11-21T02:03:53;4.70;;;4.30;;
14688;SDS011;7432;48.728;9.154;2023-11-21T02:06:22;4.67;;;4.27;;
14688;SDS011;7432;48.728;9.154;2023-11-21T02:08:49;4.80;;;4.40;;
14688;SDS011;7432;48.728;9.154;2023-11-21T02:11:16;5.63;;;4.00;;
14688;SDS011;7432;48.728;9.154;2023-11-21T02:13:44;6.03;;;4.50;;
14688;SDS011;7432;48.728;9.154;2023-11-21T02:16:10;4.67;;;4.33;;
14688;SDS011;7432;48.728;9.154;2023-11-21T02:18:37;4.20;;;3.90;;
14688;SDS011;7432;48.728;9.154;2023-11-21T02:21:04;5.60;;;4.07;;
14688;SDS011;7432;48.728;9.154;2023-11-21T02:23:32;4.50;;;4.20;;
14688;SDS011;7432;48.728;9.154;2023-11-21T02:25:59;4.50;;;4.10;;
14688;SDS011;7432;48.728;9.154;2023-11-21T02:28:29;4.03;;;3.70;;
14688;SDS011;7432;48.728;9.154;2023-11-21T02:30:55;4.80;;;4.40;;
14688;SDS011;7432;48.728;9.154;2023-11-21T02:33:24;4.83;;;4.43;;
14688;SDS011;7432;48.728;9.154;2023-11-21T02:35:50;4.70;;;4.13;;
14688;SDS011;7432;48.728;9.154;2023-11-21T02:38:19;5.30;;;4.80;;
14688;SDS011;7432;48.728;9.154;2023-11-21T02:40:47;5.20;;;4.70;;
14688;SDS011;7432;48.728;9.154;2023-11-21T02:43:14;7.30;;;4.37;;
14688;SDS011;7432;48.728;9.154;2023-11-21T02:45:40;5.10;;;4.70;;
14688;SDS011;7432;48.728;9.154;2023-11-21T02:48:07;5.60;;;5.20;;
14688;SDS011;7432;48.728;9.154;2023-11-21T02:50:34;5.23;;;4.80;;
14688;SDS011;7432;48.728;9.154;2023-11-21T02:53:00;5.37;;;4.83;;
14688;SDS011;7432;48.728;9.154;2023-11-21T02:55:27;4.63;;;4.33;;
14688;SDS011;7432;48.728;9.154;2023-11-21T02:57:55;5.20;;;4.80;;
14688;SDS011;7432;48.728;9.154;2023-11-21T03:00:22;5.07;;;4.67;;
14688;SDS011;7432;48.728;9.154;2023-11-21T03:02:50;7.10;;;4.83;;
14688;SDS011;7432;48.728;9.154;2023-11-21T03:05:17;4.67;;;4.30;;
14688;SDS011;7432;48.728;9.154;2023-11-21T03:07:43;4.60;;;4.30;;
14688;SDS011;7432;48.728;9.154;2023-11-21T03:10:10;4.80;;;4.40;;
14688;SDS011;7432;48.728;9.154;2023-11-21T03:12:36;4.77;;;4.40;;
14688;SDS011;7432;48.728;9.154;2023-11-21T03:15:05;4.80;;;4.50;;
14688;SDS011;7432;48.728;9.154;2023-11-21T03:17:32;4.40;;;4.10;;
14688;SDS011;7432;48.728;9.154;2023-11-21T03:19:59;4.67;;;4.33;;
14688;SDS011;7432;48.728;9.154;2023-11-21T03:22:26;5.10;;;4.70;;
14688;SDS011;7432;48.728;9.154;2023-11-21T03:24:52;5.00;;;4.67;;
14688;SDS011;7432;48.728;9.154;2023-11-21T03:27:18;5.07;;;4.77;;
14688;SDS011;7432;48.728;9.154;2023-11-21T03:29:45;4.93;;;4.63;;
14688;SDS011;7432;48.728;9.154;2023-11-21T03:32:13;4.73;;;4.43;;
14688;SDS011;7432;48.728;9.154;2023-11-21T03:34:52;5.00;;;4.60;;
14688;SDS011;7432;48.728;9.154;2023-11-21T03:37:20;5.00;;;4.60;;
14688;SDS011;7432;48.728;9.154;2023-11-21T03:39:46;5.30;;;4.60;;
14688;SDS011;7432;48.728;9.154;2023-11-21T03:42:13;4.97;;;4.40;;
14688;SDS011;7432;48.728;9.154;2023-11-21T03:44:39;4.70;;;4.30;;
14688;SDS011;7432;48.728;9.154;2023-11-21T03:47:05;5.33;;;4.33;;
14688;SDS011;7432;48.728;9.154;2023-11-21T03:49:33;4.30;;;4.10;;
14688;SDS011;7432;48.728;9.154;2023-11-21T03:52:00;4.70;;;4.30;;
14688;SDS011;7432;48.728;9.154;2023-11-21T03:54:27;4.57;;;4.27;;
14688;SDS011;7432;48.728;9.154;2023-11-21T03:56:53;4.87;;;4.47;;
14688;SDS011;7432;48.728;9.154;2023-11-21T03:59:20;5.20;;;4.83;;
14688;SDS011;7432;48.728;9.154;2023-11-21T04:01:49;4.80;;;4.50;;
14688;SDS011;7432;48.728;9.154;2023-11-21T04:04:16;5.00;;;4.57;;
14688;SDS011;7432;48.728;9.154;2023-11-21T04:06:43;5.20;;;4.80;;
14688;SDS011;7432;48.728;9.154;2023-11-21T04:09:10;5.50;;;5.10;;
14688;SDS011;7432;48.728;9.154;2023-11-21T04:11:37;5.17;;;4.73;;
14688;SDS011;7432;48.728;9.154;2023-11-21T04:14:04;5.00;;;4.70;;
14688;SDS011;7432;48.728;9.154;2023-11-21T04:16:30;5.27;;;4.97;;
14688;SDS011;7432;48.728;9.154;2023-11-21T04:18:56;4.60;;;4.30;;
14688;SDS011;7432;48.728;9.154;2023-11-21T04:21:23;4.73;;;4.40;;
14688;SDS011;7432;48.728;9.154;2023-11-21T04:23:51;5.73;;;5.23;;
14688;SDS011;7432;48.728;9.154;2023-11-21T04:26:17;5.17;;;4.87;;
14688;SDS011;7432;48.728;9.154;2023-11-21T04:28:43;5.30;;;5.00;;
14688;SDS011;7432;48.728;9.154;2023-11-21T04:31:10;5.83;;;5.03;;
14688;SDS011;7432;48.728;9.154;2023-11-21T04:33:36;5.13;;;4.83;;
14688;SDS011;7432;48.728;9.154;2023-11-21T04:36:03;5.03;;;4.63;;
14688;SDS011;7432;48.728;9.154;2023-11-21T04:38:30;5.37;;;4.87;;
14688;SDS011;7432;48.728;9.154;2023-11-21T04:40:58;5.80;;;5.40;;
14688;SDS011;7432;48.728;9.154;2023-11-21T04:43:24;5.50;;;5.10;;
14688;SDS011;7432;48.728;9.154;2023-11-21T04:45:50;5.17;;;4.87;;
14688;SDS011;7432;48.728;9.154;2023-11-21T04:48:17;4.80;;;4.50;;
14688;SDS011;7432;48.728;9.154;2023-11-21T04:50:43;5.20;;;4.80;;
14688;SDS011;7432;48.728;9.154;2023-11-21T04:53:09;4.73;;;4.53;;
14688;SDS011;7432;48.728;9.154;2023-11-21T04:55:38;4.63;;;4.33;;
14688;SDS011;7432;48.728;9.154;2023-11-21T04:58:06;4.90;;;4.53;;
14688;SDS011;7432;48.728;9.154;2023-11-21T05:00:33;4.90;;;4.50;;
14688;SDS011;7432;48.728;9.154;2023-11-21T05:03:01;5.10;;;4.80;;
14688;SDS011;7432;48.728;9.154;2023-11-21T05:05:28;5.47;;;4.60;;
14688;SDS011;7432;48.728;9.154;2023-11-21T05:07:55;4.87;;;4.50;;
14688;SDS011;7432;48.728;9.154;2023-11-21T05:10:21;4.73;;;4.33;;
14688;SDS011;7432;48.728;9.154;2023-11-21T05:12:48;5.03;;;4.73;;
14688;SDS011;7432;48.728;9.154;2023-11-21T05:15:16;4.90;;;4.60;;
14688;SDS011;7432;48.728;9.154;2023-11-21T05:17:43;5.47;;;4.87;;
14688;SDS011;7432;48.728;9.154;2023-11-21T05:20:10;5.00;;;4.70;;
14688;SDS011;7432;48.728;9.154;2023-11-21T05:22:38;4.77;;;4.37;;
14688;SDS011;7432;48.728;9.154;2023-11-21T05:25:05;5.30;;;5.00;;
14688;SDS011;7432;48.728;9.154;2023-11-21T05:27:33;5.13;;;4.83;;
14688;SDS011;7432;48.728;9.154;2023-11-21T05:30:01;5.37;;;5.07;;
14688;SDS011;7432;48.728;9.154;2023-11-21T05:32:31;4.90;;;4.60;;
14688;SDS011;7432;48.728;9.154;2023-11-21T05:34:58;5.70;;;5.20;;
14688;SDS011;7432;48.728;9.154;2023-11-21T05:37:24;6.07;;;5.50;;
14688;SDS011;7432;48.728;9.154;2023-11-21T05:39:52;4.83;;;4.63;;
14688;SDS011;7432;48.728;9.154;2023-11-21T05:42:21;5.50;;;5.10;;
14688;SDS011;7432;48.728;9.154;2023-11-21T05:44:48;5.40;;;5.00;;
14688;SDS011;7432;48.728;9.154;2023-11-21T05:47:15;5.00;;;4.80;;
14688;SDS011;7432;48.728;9.154;2023-11-21T05:49:42;5.17;;;4.87;;
14688;SDS011;7432;48.728;9.154;2023-11-21T05:52:10;5.63;;;5.20;;
14688;SDS011;7432;48.728;9.154;2023-11-21T05:54:36;6.00;;;5.60;;
14688;SDS011;7432;48.728;9.154;2023-11-21T05:57:03;5.87;;;5.47;;
14688;SDS011;7432;48.728;9.154;2023-11-21T05:59:30;7.93;;;7.27;;
14688;SDS011;7432;48.728;9.154;2023-11-21T06:01:56;7.90;;;7.20;;
14688;SDS011;7432;48.728;9.154;2023-11-21T06:04:23;6.23;;;5.77;;
14688;SDS011;7432;48.728;9.154;2023-11-21T06:06:52;5.80;;;5.40;;
14688;SDS011;7432;48.728;9.154;2023-11-21T06:09:18;5.23;;;4.93;;
14688;SDS011;7432;48.728;9.154;2023-11-21T06:11:45;5.47;;;4.97;;
14688;SDS011;7432;48.728;9.154;2023-11-21T06:14:11;5.40;;;4.90;;
14688;SDS011;7432;48.728;9.154;2023-11-21T06:16:38;5.47;;;5.17;;
14688;SDS011;7432;48.728;9.154;2023-11-21T06:19:05;5.30;;;4.90;;
14688;SDS011;7432;48.728;9.154;2023-11-21T06:21:31;5.07;;;4.60;;
14688;SDS011;7432;48.728;9.154;2023-11-21T06:24:00;4.93;;;4.63;;
14688;SDS011;7432;48.728;9.154;2023-11-21T06:26:26;4.93;;;4.73;;
14688;SDS011;7432;48.728;9.154;2023-11-21T06:28:53;5.57;;;5.17;;
14688;SDS011;7432;48.728;9.154;2023-11-21T06:31:20;6.33;;;5.93;;
14688;SDS011;7432;48.728;9.154;2023-11-21T06:33:46;6.13;;;5.57;;
14688;SDS011;7432;48.728;9.154;2023-11-21T06:36:13;6.10;;;5.67;;
14688;SDS011;7432;48.728;9.154;2023-11-21T06:38:39;5.67;;;5.23;;
14688;SDS011;7432;48.728;9.154;2023-11-21T06:41:07;5.40;;;5.10;;
14688;SDS011;7432;48.728;9.154;2023-11-21T06:43:33;5.60;;;5.30;;
14688;SDS011;7432;48.728;9.154;2023-11-21T06:46:01;5.40;;;5.10;;
14688;SDS011;7432;48.728;9.154;2023-11-21T06:48:27;5.57;;;5.20;;
14688;SDS011;7432;48.728;9.154;2023-11-21T06:50:55;5.60;;;5.20;;
14688;SDS011;7432;48.728;9.154;2023-11-21T06:53:21;7.07;;;6.37;;
14688;SDS011;7432;48.728;9.154;2023-11-21T06:55:47;7.70;;;6.93;;
14688;SDS011;7432;48.728;9.154;2023-11-21T06:58:15;9.07;;;8.20;;
14688;SDS011;7432;48.728;9.154;2023-11-21T07:00:41;10.27;;;9.17;;
14688;SDS011;7432;48.728;9.154;2023-11-21T07:03:11;8.17;;;7.23;;
14688;SDS011;7432;48.728;9.154;2023-11-21T07:05:38;6.53;;;6.07;;
14688;SDS011;7432;48.728;9.154;2023-11-21T07:08:04;6.27;;;5.73;;
14688;SDS011;7432;48.728;9.154;2023-11-21T07:10:32;5.83;;;5.43;;
14688;SDS011;7432;48.728;9.154;2023-11-21T07:12:59;6.10;;;5.60;;
14688;SDS011;7432;48.728;9.154;2023-11-21T07:15:27;5.80;;;5.40;;
14688;SDS011;7432;48.728;9.154;2023-11-21T07:17:54;5.80;;;5.33;;
14688;SDS011;7432;48.728;9.154;2023-11-21T07:20:20;5.90;;;5.50;;
14688;SDS011;7432;48.728;9.154;2023-11-21T07:22:47;6.10;;;5.60;;
14688;SDS011;7432;48.728;9.154;2023-11-21T07:25:13;5.50;;;5.17;;
14688;SDS011;7432;48.728;9.154;2023-11-21T07:27:40;6.37;;;5.87;;
14688;SDS011;7432;48.728;9.154;2023-11-21T07:30:06;6.60;;;6.00;;
14688;SDS011;7432;48.728;9.154;2023-11-21T07:32:36;6.37;;;5.73;;
14688;SDS011;7432;48.728;9.154;2023-11-21T07:35:04;6.50;;;5.50;;
14688;SDS011;7432;48.728;9.154;2023-11-21T07:37:33;9.30;;;5.50;;
14688;SDS011;7432;48.728;9.154;2023-11-21T07:39:59;6.33;;;5.80;;
14688;SDS011;7432;48.728;9.154;2023-11-21T07:42:25;6.77;;;5.70;;
14688;SDS011;7432;48.728;9.154;2023-11-21T07:44:52;6.33;;;5.43;;
14688;SDS011;7432;48.728;9.154;2023-11-21T07:47:18;5.87;;;5.37;;
14688;SDS011;7432;48.728;9.154;2023-11-21T07:49:46;6.53;;;6.00;;
14688;SDS011;7432;48.728;9.154;2023-11-21T07:52:13;6.90;;;5.90;;
14688;SDS011;7432;48.728;9.154;2023-11-21T07:54:41;6.70;;;5.93;;
14688;SDS011;7432;48.728;9.154;2023-11-21T07:57:07;6.13;;;5.63;;
14688;SDS011;7432;48.728;9.154;2023-11-21T07:59:34;6.50;;;5.53;;
14688;SDS011;7432;48.728;9.154;2023-11-21T08:02:00;6.50;;;5.90;;
14688;SDS011;7432;48.728;9.154;2023-11-21T08:04:26;6.67;;;6.00;;
14688;SDS011;7432;48.728;9.154;2023-11-21T08:06:54;6.50;;;5.93;;
14688;SDS011;7432;48.728;9.154;2023-11-21T08:09:21;8.53;;;6.20;;
14688;SDS011;7432;48.728;9.154;2023-11-21T08:11:48;6.23;;;5.73;;
14688;SDS011;7432;48.728;9.154;2023-11-21T08:14:15;6.20;;;5.73;;
14688;SDS011;7432;48.728;9.154;2023-11-21T08:16:41;6.50;;;6.00;;
14688;SDS011;7432;48.728;9.154;2023-11-21T08:19:09;7.20;;;6.50;;
14688;SDS011;7432;48.728;9.154;2023-11-21T08:21:36;8.57;;;6.13;;
14688;SDS011;7432;48.728;9.154;2023-11-21T08:24:07;6.57;;;6.07;;
14688;SDS011;7432;48.728;9.154;2023-11-21T08:26:35;6.53;;;5.93;;
14688;SDS011;7432;48.728;9.154;2023-11-21T08:29:02;6.87;;;6.23;;
14688;SDS011;7432;48.728;9.154;2023-11-21T08:31:28;5.50;;;5.10;;
14688;SDS011;7432;48.728;9.154;2023-11-21T08:33:55;6.70;;;6.27;;
14688;SDS011;7432;48.728;9.154;2023-11-21T08:36:21;6.37;;;5.87;;
14688;SDS011;7432;48.728;9.154;2023-11-21T08:38:49;6.30;;;5.80;;
14688;SDS011;7432;48.728;9.154;2023-11-21T08:41:18;6.07;;;5.63;;
14688;SDS011;7432;48.728;9.154;2023-11-21T08:43:47;5.60;;;5.20;;
14688;SDS011;7432;48.728;9.154;2023-11-21T08:46:13;6.53;;;6.13;;
14688;SDS011;7432;48.728;9.154;2023-11-21T08:48:40;5.90;;;5.50;;
14688;SDS011;7432;48.728;9.154;2023-11-21T08:51:09;6.10;;;5.70;;
14688;SDS011;7432;48.728;9.154;2023-11-21T08:53:36;5.93;;;5.53;;
14688;SDS011;7432;48.728;9.154;2023-11-21T08:56:03;6.00;;;5.60;;
14688;SDS011;7432;48.728;9.154;2023-11-21T08:58:31;5.90;;;5.40;;
14688;SDS011;7432;48.728;9.154;2023-11-21T09:00:58;5.83;;;5.40;;
14688;SDS011;7432;48.728;9.154;2023-11-21T09:03:24;6.40;;;6.00;;
14688;SDS011;7432;48.728;9.154;2023-11-21T09:05:51;5.87;;;5.47;;
14688;SDS011;7432;48.728;9.154;2023-11-21T09:08:17;5.80;;;5.40;;
14688;SDS011;7432;48.728;9.154;2023-11-21T09:10:44;5.57;;;5.27;;
14688;SDS011;7432;48.728;9.154;2023-11-21T09:13:12;6.23;;;5.83;;
14688;SDS011;7432;48.728;9.154;2023-11-21T09:15:40;6.07;;;5.67;;
14688;SDS011;7432;48.728;9.154;2023-11-21T09:18:07;5.37;;;5.07;;
14688;SDS011;7432;48.728;9.154;2023-11-21T09:20:33;6.07;;;5.57;;
14688;SDS011;7432;48.728;9.154;2023-11-21T09:22:59;5.33;;;5.03;;
14688;SDS011;7432;48.728;9.154;2023-11-21T09:25:26;6.03;;;5.63;;
14688;SDS011;7432;48.728;9.154;2023-11-21T09:27:53;6.50;;;5.90;;
14688;SDS011;7432;48.728;9.154;2023-11-21T09:30:21;6.50;;;6.10;;
14688;SDS011;7432;48.728;9.154;2023-11-21T09:32:51;6.63;;;6.23;;
14688;SDS011;7432;48.728;9.154;2023-11-21T09:35:17;6.67;;;6.37;;
14688;SDS011;7432;48.728;9.154;2023-11-21T09:37:43;6.10;;;5.80;;
14688;SDS011;7432;48.728;9.154;2023-11-21T09:40:11;6.80;;;6.40;;
14688;SDS011;7432;48.728;9.154;2023-11-21T09:42:43;6.67;;;6.27;;
14688;SDS011;7432;48.728;9.154;2023-11-21T09:45:15;6.50;;;6.20;;
14688;SDS011;7432;48.728;9.154;2023-11-21T09:47:45;6.70;;;6.40;;
14688;SDS011;7432;48.728;9.154;2023-11-21T09:50:14;6.67;;;6.23;;
14688;SDS011;7432;48.728;9.154;2023-11-21T09:52:44;6.97;;;6.43;;
14688;SDS011;7432;48.728;9.154;2023-11-21T09:55:19;6.80;;;6.40;;
14688;SDS011;7432;48.728;9.154;2023-11-21T09:57:47;7.03;;;6.63;;
14688;SDS011;7432;48.728;9.154;2023-11-21T10:00:15;6.67;;;6.37;;
14688;SDS011;7432;48.728;9.154;2023-11-21T10:02:43;7.20;;;6.80;;
14688;SDS011;7432;48.728;9.154;2023-11-21T10:05:09;6.43;;;6.10;;
14688;SDS011;7432;48.728;9.154;2023-11-21T10:07:39;6.63;;;6.33;;
14688;SDS011;7432;48.728;9.154;2023-11-21T10:10:06;6.53;;;6.23;;
14688;SDS011;7432;48.728;9.154;2023-11-21T10:12:34;6.33;;;6.03;;
14688;SDS011;7432;48.728;9.154;2023-11-21T10:15:03;6.90;;;6.50;;
14688;SDS011;7432;48.728;9.154;2023-11-21T10:17:34;6.57;;;6.27;;
14688;SDS011;7432;48.728;9.154;2023-11-21T10:20:08;7.03;;;6.60;;
14688;SDS011;7432;48.728;9.154;2023-11-21T10:22:40;6.70;;;6.30;;
14688;SDS011;7432;48.728;9.154;2023-11-21T10:25:07;7.20;;;6.30;;
14688;SDS011;7432;48.728;9.154;2023-11-21T10:27:34;7.10;;;6.43;;
14688;SDS011;7432;48.728;9.154;2023-11-21T10:30:00;6.70;;;6.40;;
14688;SDS011;7432;48.728;9.154;2023-11-21T10:32:28;6.87;;;6.47;;
14688;SDS011;7432;48.728;9.154;2023-11-21T10:34:57;6.00;;;5.70;;
14688;SDS011;7432;48.728;9.154;2023-11-21T10:37:25;6.80;;;6.30;;
14688;SDS011;7432;48.728;9.154;2023-11-21T10:39:55;6.50;;;6.20;;
14688;SDS011;7432;48.728;9.154;2023-11-21T10:42:23;6.70;;;6.30;;
14688;SDS011;7432;48.728;9.154;2023-11-21T10:44:50;6.83;;;6.23;;
14688;SDS011;7432;48.728;9.154;2023-11-21T10:47:17;6.50;;;6.10;;
14688;SDS011;7432;48.728;9.154;2023-11-21T10:49:44;6.90;;;6.50;;
14688;SDS011;7432;48.728;9.154;2023-11-21T10:52:12;6.80;;;6.40;;
14688;SDS011;7432;48.728;9.154;2023-11-21T10:54:42;6.63;;;6.33;;
14688;SDS011;7432;48.728;9.154;2023-11-21T10:57:10;6.50;;;6.10;;
14688;SDS011;7432;48.728;9.154;2023-11-21T10:59:40;6.80;;;6.40;;
14688;SDS011;7432;48.728;9.154;2023-11-21T11:02:09;6.20;;;5.80;;
14688;SDS011;7432;48.728;9.154;2023-11-21T11:04:46;6.50;;;6.10;;
14688;SDS011;7432;48.728;9.154;2023-11-21T11:07:14;6.70;;;6.10;;
14688;SDS011;7432;48.728;9.154;2023-11-21T11:09:42;6.33;;;6.00;;
14688;SDS011;7432;48.728;9.154;2023-11-21T11:12:11;6.70;;;6.20;;
14688;SDS011;7432;48.728;9.154;2023-11-21T11:14:40;6.10;;;5.80;;
14688;SDS011;7432;48.728;9.154;2023-11-21T11:17:08;6.50;;;6.10;;
14688;SDS011;7432;48.728;9.154;2023-11-21T11:19:36;6.77;;;6.37;;
14688;SDS011;7432;48.728;9.154;2023-11-21T11:22:04;6.47;;;6.07;;
14688;SDS011;7432;48.728;9.154;2023-11-21T11:24:48;6.20;;;5.90;;
14688;SDS011;7432;48.728;9.154;2023-11-21T11:27:34;7.03;;;6.43;;
14688;SDS011;7432;48.728;9.154;2023-11-21T11:30:09;6.83;;;6.43;;
14688;SDS011;7432;48.728;9.154;2023-11-21T11:32:43;6.20;;;5.90;;
14688;SDS011;7432;48.728;9.154;2023-11-21T11:35:23;6.60;;;6.20;;
14688;SDS011;7432;48.728;9.154;2023-11-21T11:37:55;6.90;;;6.50;;
14688;SDS011;7432;48.728;9.154;2023-11-21T11:40:23;6.57;;;6.23;;
14688;SDS011;7432;48.728;9.154;2023-11-21T11:42:57;6.50;;;6.20;;
14688;SDS011;7432;48.728;9.154;2023-11-21T11:45:24;6.10;;;5.80;;
14688;SDS011;7432;48.728;9.154;2023-11-21T11:47:58;5.97;;;5.67;;
14688;SDS011;7432;48.728;9.154;2023-11-21T11:50:26;6.07;;;5.77;;
14688;SDS011;7432;48.728;9.154;2023-11-21T11:52:53;6.47;;;5.97;;
14688;SDS011;7432;48.728;9.154;2023-11-21T11:55:23;6.23;;;5.93;;
14688;SDS011;7432;48.728;9.154;2023-11-21T11:57:51;6.27;;;5.97;;
14688;SDS011;7432;48.728;9.154;2023-11-21T12:00:22;6.00;;;5.70;;
14688;SDS011;7432;48.728;9.154;2023-11-21T12:03:02;6.43;;;6.13;;
14688;SDS011;7432;48.728;9.154;2023-11-21T12:05:30;6.20;;;5.90;;
14688;SDS011;7432;48.728;9.154;2023-11-21T12:08:01;6.70;;;6.40;;
14688;SDS011;7432;48.728;9.154;2023-11-21T12:10:29;7.10;;;6.70;;
14688;SDS011;7432;48.728;9.154;2023-11-21T12:12:57;6.40;;;6.00;;
14688;SDS011;7432;48.728;9.154;2023-11-21T12:15:26;6.33;;;6.03;;
14688;SDS011;7432;48.728;9.154;2023-11-21T12:17:54;6.57;;;6.27;;
14688;SDS011;7432;48.728;9.154;2023-11-21T12:20:22;6.60;;;6.30;;
14688;SDS011;7432;48.728;9.154;2023-11-21T12:22:50;6.77;;;6.37;;
14688;SDS011;7432;48.728;9.154;2023-11-21T12:25:17;6.07;;;5.77;;
14688;SDS011;7432;48.728;9.154;2023-11-21T12:27:45;6.60;;;6.30;;
14688;SDS011;7432;48.728;9.154;2023-11-21T12:30:14;6.27;;;5.97;;
14688;SDS011;7432;48.728;9.154;2023-11-21T12:32:43;6.60;;;6.10;;
14688;SDS011;7432;48.728;9.154;2023-11-21T12:35:11;6.77;;;6.37;;
14688;SDS011;7432;48.728;9.154;2023-11-21T12:37:38;6.57;;;6.27;;
14688;SDS011;7432;48.728;9.154;2023-11-21T12:40:06;6.80;;;6.40;;
14688;SDS011;7432;48.728;9.154;2023-11-21T12:42:36;6.13;;;5.83;;
14688;SDS011;7432;48.728;9.154;2023-11-21T12:45:09;6.37;;;6.03;;
14688;SDS011;7432;48.728;9.154;2023-11-21T12:47:46;6.77;;;6.40;;
14688;SDS011;7432;48.728;9.154;2023-11-21T12:50:14;6.43;;;6.13;;
14688;SDS011;7432;48.728;9.154;2023-11-21T12:52:41;6.60;;;6.30;;
14688;SDS011;7432;48.728;9.154;2023-11-21T12:55:12;6.67;;;6.30;;
14688;SDS011;7432;48.728;9.154;2023-11-21T12:57:40;6.77;;;6.47;;
14688;SDS011;7432;48.728;9.154;2023-11-21T13:00:08;6.90;;;6.60;;
14688;SDS011;7432;48.728;9.154;2023-11-21T13:02:40;7.00;;;6.63;;
14688;SDS011;7432;48.728;9.154;2023-11-21T13:05:09;6.63;;;6.33;;
14688;SDS011;7432;48.728;9.154;2023-11-21T13:07:46;6.30;;;6.00;;
14688;SDS011;7432;48.728;9.154;2023-11-21T13:10:13;5.97;;;5.67;;
14688;SDS011;7432;48.728;9.154;2023-11-21T13:12:42;5.63;;;5.37;;
14688;SDS011;7432;48.728;9.154;2023-11-21T13:15:09;5.90;;;5.60;;
14688;SDS011;7432;48.728;9.154;2023-11-21T13:17:39;5.77;;;5.47;;
14688;SDS011;7432;48.728;9.154;2023-11-21T13:20:06;6.00;;;5.70;;
14688;SDS011;7432;48.728;9.154;2023-11-21T13:22:44;6.03;;;5.73;;
14688;SDS011;7432;48.728;9.154;2023-11-21T13:25:11;6.07;;;5.67;;
14688;SDS011;7432;48.728;9.154;2023-11-21T13:27:39;6.00;;;5.70;;
14688;SDS011;7432;48.728;9.154;2023-11-21T13:30:08;5.87;;;5.57;;
14688;SDS011;7432;48.728;9.154;2023-11-21T13:32:36;6.13;;;5.83;;
14688;SDS011;7432;48.728;9.154;2023-11-21T13:35:02;6.60;;;6.27;;
14688;SDS011;7432;48.728;9.154;2023-11-21T13:37:33;7.10;;;6.60;;
14688;SDS011;7432;48.728;9.154;2023-11-21T13:40:01;6.37;;;6.07;;
14688;SDS011;7432;48.728;9.154;2023-11-21T13:42:35;6.60;;;6.20;;
14688;SDS011;7432;48.728;9.154;2023-11-21T13:45:01;6.40;;;6.10;;
14688;SDS011;7432;48.728;9.154;2023-11-21T13:47:30;6.57;;;6.27;;
14688;SDS011;7432;48.728;9.154;2023-11-21T13:49:58;6.20;;;5.90;;
14688;SDS011;7432;48.728;9.154;2023-11-21T13:52:25;6.17;;;5.87;;
14688;SDS011;7432;48.728;9.154;2023-11-21T13:54:53;6.20;;;5.87;;
14688;SDS011;7432;48.728;9.154;2023-11-21T13:57:21;5.97;;;5.67;;
14688;SDS011;7432;48.728;9.154;2023-11-21T13:59:47;5.93;;;5.63;;
14688;SDS011;7432;48.728;9.154;2023-11-21T14:02:14;6.03;;;5.73;;
14688;SDS011;7432;48.728;9.154;2023-11-21T14:04:43;6.00;;;5.70;;
14688;SDS011;7432;48.728;9.154;2023-11-21T14:07:19;6.07;;;5.67;;
14688;SDS011;7432;48.728;9.154;2023-11-21T14:09:56;6.40;;;6.00;;
14688;SDS011;7432;48.728;9.154;2023-11-21T14:12:24;5.97;;;5.67;;
14688;SDS011;7432;48.728;9.154;2023-11-21T14:14:51;6.30;;;6.00;;
14688;SDS011;7432;48.728;9.154;2023-11-21T14:17:17;5.80;;;5.50;;
14688;SDS011;7432;48.728;9.154;2023-11-21T14:19:47;6.13;;;5.77;;
14688;SDS011;7432;48.728;9.154;2023-11-21T14:22:14;6.20;;;5.90;;
14688;SDS011;7432;48.728;9.154;2023-11-21T14:24:42;6.50;;;6.10;;
14688;SDS011;7432;48.728;9.154;2023-11-21T14:27:11;6.40;;;6.00;;
14688;SDS011;7432;48.728;9.154;2023-11-21T14:29:39;6.40;;;6.00;;
14688;SDS011;7432;48.728;9.154;2023-11-21T14:32:09;6.63;;;6.23;;
14688;SDS011;7432;48.728;9.154;2023-11-21T14:34:36;6.47;;;5.97;;
14688;SDS011;7432;48.728;9.154;2023-11-21T14:37:03;6.77;;;6.37;;
14688;SDS011;7432;48.728;9.154;2023-11-21T14:39:30;6.27;;;5.77;;
14688;SDS011;7432;48.728;9.154;2023-11-21T14:42:00;6.43;;;6.00;;
14688;SDS011;7432;48.728;9.154;2023-11-21T14:44:27;6.23;;;5.90;;
14688;SDS011;7432;48.728;9.154;2023-11-21T14:46:59;6.80;;;6.40;;
14688;SDS011;7432;48.728;9.154;2023-11-21T14:49:28;6.97;;;6.27;;
14688;SDS011;7432;48.728;9.154;2023-11-21T14:52:03;6.07;;;5.77;;
14688;SDS011;7432;48.728;9.154;2023-11-21T14:54:32;6.60;;;6.20;;
14688;SDS011;7432;48.728;9.154;2023-11-21T14:57:06;6.80;;;6.40;;
14688;SDS011;7432;48.728;9.154;2023-11-21T14:59:36;7.20;;;6.70;;
14688;SDS011;7432;48.728;9.154;2023-11-21T15:02:03;7.47;;;6.80;;
14688;SDS011;7432;48.728;9.154;2023-11-21T15:04:39;6.27;;;5.87;;